Time;durP1;ratioP1;P1;durP2;ratioP2;P2;SDS_P1;SDS_P2;PMS_P1;PMS_P2;Temp;Humidity;BMP_temperature;BMP_pressure;BME280_temperature;BME280_humidity;BME280_pressure;Samples;Min_cycle;Max_cycle;Signal;HPM_P1;HPM_P2
2023/09/03 08:09:26;;;;;;;1.25;0.80;;;;;;;;;;7513276;19;20823;-74
2023/09/03 08:11:54;;;;;;;2.83;0.80;;;;;;;;;;7517536;19;20017;-76
2023/09/03 08:14:24;;;;;;;4.57;0.95;;;;;;;;;;7515641;19;20026;-74
2023/09/03 08:16:51;;;;;;;1.90;1.00;;;;;;;;;;7516226;19;20026;-73
2023/09/03 08:19:18;;;;;;;2.22;1.00;;;;;;;;;;7443700;19;140388;-74
2023/09/03 08:21:47;;;;;;;1.90;0.90;;;;;;;;;;7333075;19;140720;-73
2023/09/03 08:24:14;;;;;;;1.55;1.00;;;;;;;;;;7337729;19;141763;-76
2023/09/03 08:26:41;;;;;;;3.25;1.20;;;;;;;;;;7334494;19;142111;-79
2023/09/03 08:29:09;;;;;;;2.75;1.38;;;;;;;;;;7337739;19;140485;-78
2023/09/03 08:34:47;;;;;;;2.80;1.48;;;;;;;;;;7332247;19;141846;-81
2023/09/03 08:37:14;;;;;;;2.38;1.50;;;;;;;;;;7335799;19;142681;-80
2023/09/03 08:39:41;;;;;;;2.90;1.35;;;;;;;;;;7334913;19;140885;-80
2023/09/03 08:44:52;;;;;;;6.38;1.40;;;;;;;;;;7348058;19;140987;-90
2023/09/03 08:47:24;;;;;;;2.60;1.30;;;;;;;;;;7341089;19;143493;-84
2023/09/03 08:49:53;;;;;;;2.22;1.45;;;;;;;;;;7338287;19;140510;-83
2023/09/03 08:52:20;;;;;;;4.47;1.55;;;;;;;;;;7336033;19;140660;-76
2023/09/03 08:54:48;;;;;;;3.33;1.50;;;;;;;;;;7335552;19;141215;-76
2023/09/03 08:57:15;;;;;;;2.50;1.20;;;;;;;;;;7336326;19;141956;-83
2023/09/03 09:00:05;;;;;;;4.25;1.50;;;;;;;;;;7335491;19;141387;-82
2023/09/03 09:02:46;;;;;;;5.70;1.23;;;;;;;;;;7332780;19;140764;-85
2023/09/03 09:05:14;;;;;;;4.07;1.40;;;;;;;;;;7332876;19;142257;-81
2023/09/03 09:07:46;;;;;;;5.13;1.40;;;;;;;;;;7333791;19;141733;-84
2023/09/03 09:10:14;;;;;;;1.83;1.15;;;;;;;;;;7336061;19;140742;-82
2023/09/03 09:13:00;;;;;;;4.45;1.30;;;;;;;;;;7334104;19;140586;-86
2023/09/03 09:15:30;;;;;;;4.03;1.23;;;;;;;;;;7334905;19;141000;-83
2023/09/03 09:18:04;;;;;;;;;;;;;;;;;;7334273;19;143062;-83
2023/09/03 09:20:34;;;;;;;4.20;1.38;;;;;;;;;;7306571;19;140758;-84
2023/09/03 09:23:01;;;;;;;2.20;1.20;;;;;;;;;;7307131;19;140496;-85
2023/09/03 09:25:31;;;;;;;1.73;1.38;;;;;;;;;;7311962;19;140782;-84
2023/09/03 09:28:08;;;;;;;3.67;1.42;;;;;;;;;;7308769;19;141450;-81
2023/09/03 09:30:35;;;;;;;3.67;1.30;;;;;;;;;;7305678;19;140532;-82
2023/09/03 09:33:03;;;;;;;1.90;1.17;;;;;;;;;;7306422;19;140539;-84
2023/09/03 09:35:30;;;;;;;2.00;1.20;;;;;;;;;;7304363;19;141561;-82
2023/09/03 09:38:04;;;;;;;2.38;1.10;;;;;;;;;;7305027;19;142023;-81
2023/09/03 09:40:32;;;;;;;3.35;1.08;;;;;;;;;;7304299;19;140659;-84
2023/09/03 09:43:01;;;;;;;1.98;1.20;;;;;;;;;;7303384;19;140688;-82
2023/09/03 09:45:28;;;;;;;1.50;1.40;;;;;;;;;;7303259;19;141894;-83
2023/09/03 09:48:08;;;;;;;1.92;1.40;;;;;;;;;;7304976;19;141882;-85
2023/09/03 09:50:45;;;;;;;3.10;1.15;;;;;;;;;;7304419;19;140660;-83
2023/09/03 09:53:22;;;;;;;2.47;1.20;;;;;;;;;;7303881;19;140625;-81
2023/09/03 09:55:57;;;;;;;2.00;1.30;;;;;;;;;;7302921;19;140962;-81
2023/09/03 09:58:34;;;;;;;4.00;1.33;;;;;;;;;;7304261;19;140759;-83
2023/09/03 10:01:02;;;;;;;2.58;1.40;;;;;;;;;;7304640;19;140278;-82
2023/09/03 10:03:40;;;;;;;2.85;1.40;;;;;;;;;;7302773;19;140556;-82
2023/09/03 10:09:14;;;;;;;2.22;1.00;;;;;;;;;;7304483;19;140748;-82
2023/09/03 10:11:51;;;;;;;1.30;1.10;;;;;;;;;;7300659;19;140695;-81
2023/09/03 10:14:33;;;;;;;1.20;1.05;;;;;;;;;;7303686;19;143022;-82
2023/09/03 10:23:28;;;;;;;2.35;1.00;;;;;;;;;;7303168;19;140704;-81
2023/09/03 10:25:56;;;;;;;1.58;1.30;;;;;;;;;;7299798;19;140930;-83
2023/09/03 10:28:34;;;;;;;2.05;1.23;;;;;;;;;;7302537;19;140692;-79
2023/09/03 10:31:02;;;;;;;1.15;1.05;;;;;;;;;;7301381;19;142918;-81
2023/09/03 10:33:29;;;;;;;1.27;1.00;;;;;;;;;;7303973;19;140390;-81
2023/09/03 10:36:16;;;;;;;2.25;1.00;;;;;;;;;;7301941;19;140860;-82
2023/09/03 10:38:44;;;;;;;1.40;1.10;;;;;;;;;;7303326;19;142988;-80
2023/09/03 10:41:21;;;;;;;1.73;1.00;;;;;;;;;;7302444;19;141162;-80
2023/09/03 10:43:53;;;;;;;1.27;1.08;;;;;;;;;;7303617;19;140522;-81
2023/09/03 10:49:07;;;;;;;0.88;0.88;;;;;;;;;;7302694;19;142249;-79
2023/09/03 10:51:37;;;;;;;0.98;0.93;;;;;;;;;;7301465;19;142112;-81
2023/09/03 10:54:15;;;;;;;1.77;1.10;;;;;;;;;;7300811;19;140541;-81
2023/09/03 10:57:00;;;;;;;1.80;1.20;;;;;;;;;;7302293;19;140565;-81
2023/09/03 11:05:29;;;;;;;2.25;1.00;;;;;;;;;;7300860;19;140981;-81
2023/09/03 11:14:10;;;;;;;1.63;1.30;;;;;;;;;;7300630;19;140866;-84
2023/09/03 11:16:41;;;;;;;3.47;1.20;;;;;;;;;;7303036;19;140597;-84
2023/09/03 11:19:15;;;;;;;1.75;1.00;;;;;;;;;;7296510;19;143198;-82
2023/09/03 11:21:42;;;;;;;1.10;1.00;;;;;;;;;;7301568;19;140644;-83
2023/09/03 11:24:16;;;;;;;1.23;1.08;;;;;;;;;;7300550;19;144208;-85
2023/09/03 11:36:08;;;;;;;1.25;1.10;;;;;;;;;;7297048;19;141533;-82
2023/09/03 11:41:45;;;;;;;1.20;1.00;;;;;;;;;;7299737;19;140939;-84
2023/09/03 11:44:27;;;;;;;1.60;1.10;;;;;;;;;;7298822;19;141441;-82
2023/09/03 11:46:56;;;;;;;1.20;1.10;;;;;;;;;;7299738;19;141060;-82
2023/09/03 11:49:24;;;;;;;1.45;1.00;;;;;;;;;;7301888;19;140511;-82
2023/09/03 11:51:52;;;;;;;1.88;1.20;;;;;;;;;;7301314;19;140448;-81
2023/09/03 11:54:23;;;;;;;1.10;1.00;;;;;;;;;;7301389;19;141117;-81
2023/09/03 11:57:03;;;;;;;1.10;1.00;;;;;;;;;;7301404;19;140749;-81
2023/09/03 11:59:30;;;;;;;1.40;1.27;;;;;;;;;;7301683;19;140575;-81
2023/09/03 12:01:57;;;;;;;0.88;0.80;;;;;;;;;;7301619;19;140665;-80
2023/09/03 12:04:25;;;;;;;1.40;1.10;;;;;;;;;;7299631;19;140571;-80
2023/09/03 12:06:52;;;;;;;1.48;1.00;;;;;;;;;;7300731;19;140745;-80
2023/09/03 12:09:23;;;;;;;1.55;1.23;;;;;;;;;;7300134;19;141828;-80
2023/09/03 12:11:50;;;;;;;1.50;1.00;;;;;;;;;;7298969;19;140462;-80
2023/09/03 12:14:38;;;;;;;1.05;0.95;;;;;;;;;;7300736;19;140693;-81
2023/09/03 12:17:05;;;;;;;1.70;1.00;;;;;;;;;;7300052;19;141867;-81
2023/09/03 12:19:39;;;;;;;2.10;1.23;;;;;;;;;;7300978;19;140602;-81
2023/09/03 12:22:07;;;;;;;1.33;1.00;;;;;;;;;;7298487;19;140669;-81
2023/09/03 12:24:34;;;;;;;1.27;1.10;;;;;;;;;;7300793;19;140849;-81
2023/09/03 12:27:05;;;;;;;1.17;1.08;;;;;;;;;;7300549;19;142846;-80
2023/09/03 12:29:36;;;;;;;1.55;1.13;;;;;;;;;;7300984;19;140575;-82
2023/09/03 12:32:16;;;;;;;1.85;1.00;;;;;;;;;;7299126;19;141065;-81
2023/09/03 12:34:49;;;;;;;1.20;1.08;;;;;;;;;;7300114;19;141218;-81
2023/09/03 12:37:16;;;;;;;1.45;1.20;;;;;;;;;;7298537;19;141297;-80
2023/09/03 12:39:56;;;;;;;1.98;1.40;;;;;;;;;;7300237;19;140579;-81
2023/09/03 12:42:23;;;;;;;1.85;1.55;;;;;;;;;;7300503;19;140605;-83
2023/09/03 12:44:58;;;;;;;4.28;1.95;;;;;;;;;;7298407;19;142529;-83
2023/09/03 12:47:26;;;;;;;2.72;2.08;;;;;;;;;;7296855;19;141305;-84
2023/09/03 12:49:53;;;;;;;2.50;1.70;;;;;;;;;;7298239;19;140807;-82
2023/09/03 12:52:20;;;;;;;3.78;1.73;;;;;;;;;;7297745;19;141208;-83
2023/09/03 12:54:47;;;;;;;1.55;1.40;;;;;;;;;;7301009;19;141308;-84
2023/09/03 12:57:14;;;;;;;3.70;1.73;;;;;;;;;;7300510;19;143373;-82
2023/09/03 12:59:41;;;;;;;2.58;1.80;;;;;;;;;;7300417;19;140757;-86
2023/09/03 13:02:09;;;;;;;3.78;1.38;;;;;;;;;;7300270;19;140674;-85
2023/09/03 13:04:56;;;;;;;5.13;1.80;;;;;;;;;;7300246;19;140944;31
2023/09/03 13:07:25;;;;;;;3.63;1.45;;;;;;;;;;7294155;19;141180;-80
2023/09/03 13:09:52;;;;;;;2.65;1.40;;;;;;;;;;7303213;19;140748;-84
2023/09/03 13:12:20;;;;;;;2.45;1.70;;;;;;;;;;7305573;19;140709;-83
2023/09/03 13:18:25;;;;;;;2.65;1.40;;;;;;;;;;7307002;19;140670;-79
2023/09/03 13:20:56;;;;;;;4.25;1.80;;;;;;;;;;7308234;19;140486;-87
2023/09/03 13:23:24;;;;;;;17.60;9.10;;;;;;;;;;7302272;19;141444;-81
2023/09/03 13:25:54;;;;;;;32.75;20.02;;;;;;;;;;7302505;19;140787;-82
2023/09/03 13:28:32;;;;;;;56.25;37.25;;;;;;;;;;7304481;19;140927;-82
2023/09/03 13:31:15;;;;;;;112.85;86.82;;;;;;;;;;7306549;19;140751;-80
2023/09/03 13:33:42;;;;;;;207.60;160.05;;;;;;;;;;7303556;19;140537;-79
2023/09/03 13:36:10;;;;;;;268.45;237.07;;;;;;;;;;7306372;19;141493;-80
2023/09/03 13:38:38;;;;;;;432.23;361.15;;;;;;;;;;7306355;19;141936;-79
2023/09/03 13:41:05;;;;;;;513.75;432.95;;;;;;;;;;7304958;19;140316;-79
2023/09/03 13:43:33;;;;;;;523.30;455.45;;;;;;;;;;7304484;19;140731;-80
2023/09/03 13:46:02;;;;;;;608.33;531.70;;;;;;;;;;7304777;19;140562;-80
2023/09/03 13:48:30;;;;;;;583.47;519.08;;;;;;;;;;7317784;19;142798;-81
2023/09/03 13:54:18;;;;;;;586.80;522.47;;;;;;;;;;7331041;19;140564;-78
2023/09/03 13:56:46;;;;;;;602.30;536.90;;;;;;;;;;7326162;19;140405;-79
2023/09/03 13:59:14;;;;;;;605.70;539.88;;;;;;;;;;7316641;19;140474;-82
2023/09/03 14:14:52;;;;;;;459.33;405.55;;;;;;;;;;7263972;19;143364;-86
2023/09/03 14:21:00;;;;;;;376.40;334.50;;;;;;;;;;7304345;19;140786;-89
2023/09/03 14:29:59;;;;;;;176.70;143.95;;;;;;;;;;7305294;19;141188;-85
2023/09/03 14:32:27;;;;;;;329.63;293.92;;;;;;;;;;7303799;19;141462;-87
2023/09/03 14:34:54;;;;;;;265.95;233.32;;;;;;;;;;7302684;19;143048;-86
2023/09/03 14:40:22;;;;;;;131.73;107.25;;;;;;;;;;7229137;19;143959;31
2023/09/03 14:46:10;;;;;;;232.20;199.13;;;;;;;;;;7301890;19;142098;-79
2023/09/03 14:48:41;;;;;;;204.27;177.35;;;;;;;;;;7299824;19;140775;-76
2023/09/03 14:54:17;;;;;;;186.97;157.43;;;;;;;;;;7298813;19;141234;-78
2023/09/03 14:56:44;;;;;;;182.32;150.02;;;;;;;;;;7299283;19;141510;-77
2023/09/03 14:59:27;;;;;;;172.15;140.35;;;;;;;;;;7301649;19;140705;-78
2023/09/03 15:08:29;;;;;;;167.70;140.38;;;;;;;;;;7296402;19;140953;-81
2023/09/03 15:10:56;;;;;;;162.88;136.88;;;;;;;;;;7300603;19;141775;-80
2023/09/03 15:13:24;;;;;;;175.98;148.25;;;;;;;;;;7301456;19;140642;-80
2023/09/03 15:18:59;;;;;;;175.35;148.10;;;;;;;;;;7298744;19;140900;-81
2023/09/03 15:21:26;;;;;;;156.50;134.68;;;;;;;;;;7300523;19;140957;-81
2023/09/03 15:23:54;;;;;;;151.07;129.48;;;;;;;;;;7301363;19;140524;-81
2023/09/03 15:39:26;;;;;;;164.43;137.90;;;;;;;;;;7301618;19;141740;-85
2023/09/03 15:42:18;;;;;;;162.00;138.48;;;;;;;;;;7299945;19;141718;-84
2023/09/03 15:53:58;;;;;;;43.60;36.95;;;;;;;;;;7301276;19;141470;-88
2023/09/03 15:56:25;;;;;;;26.73;22.40;;;;;;;;;;7298757;19;141965;-87
2023/09/03 15:58:55;;;;;;;37.30;30.60;;;;;;;;;;7301479;19;140717;-87
2023/09/03 16:14:01;;;;;;;9.03;5.63;;;;;;;;;;7280422;19;143268;-82
2023/09/03 16:16:48;;;;;;;7.32;3.53;;;;;;;;;;7303623;19;140899;-81
2023/09/03 16:19:26;;;;;;;;;;;;;;;;;;;;;
2023/09/03 16:22:11;;;;;;;6.57;4.82;;;;;;;;;;7298533;19;140617;-82
2023/09/03 16:27:52;;;;;;;5.97;3.40;;;;;;;;;;7301088;19;143663;-82
2023/09/03 16:30:27;;;;;;;3.88;3.00;;;;;;;;;;7306939;19;140526;-84
2023/09/03 16:36:43;;;;;;;4.53;2.33;;;;;;;;;;7302955;19;140888;-86
2023/09/03 16:42:12;;;;;;;8.63;4.32;;;;;;;;;;7307416;19;140655;-83
2023/09/03 16:44:40;;;;;;;6.55;3.60;;;;;;;;;;7305347;19;140710;-83
2023/09/03 16:47:11;;;;;;;3.65;2.22;;;;;;;;;;7308087;19;140403;-84
2023/09/03 16:52:38;;;;;;;4.72;2.60;;;;;;;;;;7311896;19;140573;-86
2023/09/03 16:55:07;;;;;;;5.22;1.98;;;;;;;;;;7304468;19;140884;-84
2023/09/03 16:57:37;;;;;;;3.08;1.80;;;;;;;;;;7305519;19;142309;-85
2023/09/03 17:00:06;;;;;;;5.00;2.30;;;;;;;;;;7307491;19;141081;-82
2023/09/03 17:02:34;;;;;;;5.18;2.30;;;;;;;;;;7305842;19;140829;-83
2023/09/03 17:05:03;;;;;;;6.20;4.70;;;;;;;;;;7305238;19;140523;-82
2023/09/03 17:07:48;;;;;;;9.55;7.90;;;;;;;;;;7307447;19;141099;-84
2023/09/03 17:19:43;;;;;;;25.40;19.88;;;;;;;;;;7300287;19;142854;-84
2023/09/03 17:25:17;;;;;;;29.35;24.33;;;;;;;;;;7294808;19;143765;-80
2023/09/03 17:31:02;;;;;;;29.88;25.13;;;;;;;;;;7301485;19;142876;-85
2023/09/03 17:40:30;;;;;;;;;;;;;;;;;;7302551;19;140702;31
2023/09/03 17:43:33;;;;;;;33.20;26.15;;;;;;;;;;7304616;19;141161;-86
2023/09/03 17:46:54;;;;;;;32.30;25.70;;;;;;;;;;7302328;19;142214;-80
2023/09/03 17:49:41;;;;;;;31.67;25.30;;;;;;;;;;7301617;19;140577;-80
2023/09/03 17:52:09;;;;;;;29.88;25.38;;;;;;;;;;7304594;19;140596;-79
2023/09/03 17:54:44;;;;;;;36.45;28.10;;;;;;;;;;7301307;19;140859;-80
2023/09/03 17:57:28;;;;;;;36.45;27.40;;;;;;;;;;7304894;19;142831;-80
2023/09/03 18:00:03;;;;;;;35.22;27.35;;;;;;;;;;7305313;19;140912;-81
2023/09/03 18:02:30;;;;;;;;;;;;;;;;;;7305363;19;140972;-77
2023/09/03 18:04:57;;;;;;;31.25;26.13;;;;;;;;;;7305624;19;151553;-78
2023/09/03 18:07:24;;;;;;;29.88;25.35;;;;;;;;;;7300998;19;142810;-78
2023/09/03 18:09:52;;;;;;;29.42;25.20;;;;;;;;;;7304867;19;140604;-78
2023/09/03 18:12:23;;;;;;;30.63;23.92;;;;;;;;;;7304905;19;140601;-86
2023/09/03 18:15:16;;;;;;;29.95;22.90;;;;;;;;;;7304868;19;140742;-87
2023/09/03 18:18:04;;;;;;;27.08;21.75;;;;;;;;;;7304081;19;144146;-87
2023/09/03 18:20:44;;;;;;;;;;;;;;;;;;;;;
2023/09/03 18:23:12;;;;;;;22.38;19.98;;;;;;;;;;7305047;19;141930;-83
2023/09/03 18:26:02;;;;;;;23.92;18.95;;;;;;;;;;7308472;19;140664;-93
2023/09/03 18:28:30;;;;;;;21.83;18.33;;;;;;;;;;7302930;19;140990;-81
2023/09/03 18:30:57;;;;;;;21.85;17.75;;;;;;;;;;7304897;19;140872;-92
2023/09/03 18:33:26;;;;;;;22.13;16.85;;;;;;;;;;7304799;19;141719;-90
2023/09/03 18:35:54;;;;;;;19.55;17.08;;;;;;;;;;7306520;19;140704;-89
2023/09/03 18:38:22;;;;;;;19.65;15.98;;;;;;;;;;7303988;19;140796;-90
2023/09/03 18:41:10;;;;;;;18.83;16.23;;;;;;;;;;7309994;19;140912;-96
2023/09/03 18:43:43;;;;;;;19.98;16.42;;;;;;;;;;7308777;19;140376;-92
2023/09/03 18:46:11;;;;;;;20.25;16.27;;;;;;;;;;7321020;19;142049;-94
2023/09/03 18:48:38;;;;;;;19.13;16.25;;;;;;;;;;7320446;19;140492;-91
2023/09/03 18:51:09;;;;;;;18.40;15.63;;;;;;;;;;7309353;19;140733;-80
2023/09/03 18:53:36;;;;;;;18.95;16.45;;;;;;;;;;7308569;19;140530;-75
2023/09/03 18:56:05;;;;;;;18.40;15.70;;;;;;;;;;7308837;19;141318;-79
2023/09/03 18:58:32;;;;;;;18.65;16.25;;;;;;;;;;7303579;19;140942;-82
2023/09/03 19:01:03;;;;;;;18.77;15.55;;;;;;;;;;7302847;19;140811;-82
2023/09/03 19:03:30;;;;;;;20.23;15.60;;;;;;;;;;7302039;19;140719;-81
2023/09/03 19:05:59;;;;;;;20.13;16.80;;;;;;;;;;7302168;19;141203;-81
2023/09/03 19:08:26;;;;;;;17.33;15.55;;;;;;;;;;7302861;19;142855;-81
2023/09/03 19:10:54;;;;;;;17.67;15.77;;;;;;;;;;7301937;19;140670;-80
2023/09/03 19:13:22;;;;;;;18.80;15.27;;;;;;;;;;7301602;19;140921;-81
2023/09/03 19:15:51;;;;;;;18.25;15.77;;;;;;;;;;7300995;19;140872;-81
2023/09/03 19:18:24;;;;;;;16.80;15.03;;;;;;;;;;7303236;19;142493;-84
2023/09/03 19:20:52;;;;;;;17.40;14.77;;;;;;;;;;7302607;19;140770;-83
2023/09/03 19:23:20;;;;;;;18.38;15.32;;;;;;;;;;7303201;19;140749;-77
2023/09/03 19:25:49;;;;;;;16.92;15.00;;;;;;;;;;7302580;19;140804;-77
2023/09/03 19:28:18;;;;;;;16.55;14.77;;;;;;;;;;7300549;19;143690;-77
2023/09/03 19:31:03;;;;;;;16.92;15.13;;;;;;;;;;7301234;19;140500;-78
2023/09/03 19:34:17;;;;;;;19.48;14.15;;;;;;;;;;7298706;19;140713;-80
2023/09/03 19:37:01;;;;;;;17.48;14.93;;;;;;;;;;7299904;19;140554;-81
2023/09/03 19:39:54;;;;;;;18.20;15.23;;;;;;;;;;7298826;19;141964;-82
2023/09/03 19:43:23;;;;;;;19.45;14.90;;;;;;;;;;7298022;19;140501;-80
2023/09/03 19:46:06;;;;;;;17.30;14.15;;;;;;;;;;7305066;19;140528;-81
2023/09/03 19:49:00;;;;;;;15.77;14.13;;;;;;;;;;7300752;19;140708;-92
2023/09/03 19:51:37;;;;;;;16.20;13.40;;;;;;;;;;7299498;19;142605;-79
2023/09/03 19:54:26;;;;;;;14.50;12.45;;;;;;;;;;7298551;19;142858;-79
2023/09/03 19:57:07;;;;;;;13.65;12.20;;;;;;;;;;7298853;19;140608;-78
2023/09/03 19:59:43;;;;;;;12.88;10.80;;;;;;;;;;7299836;19;140625;-78
2023/09/03 20:02:25;;;;;;;11.43;10.18;;;;;;;;;;7299385;19;143498;-78
2023/09/03 20:04:57;;;;;;;11.00;9.02;;;;;;;;;;7299085;19;140791;-79
2023/09/03 20:07:36;;;;;;;10.07;8.45;;;;;;;;;;7297764;19;141469;-78
2023/09/03 20:10:04;;;;;;;12.20;7.93;;;;;;;;;;7299021;19;140874;-78
2023/09/03 20:12:46;;;;;;;10.18;7.13;;;;;;;;;;7295822;19;141038;-79
2023/09/03 20:15:49;;;;;;;;;;;;;;;;;;;;;
2023/09/03 20:18:37;;;;;;;7.28;5.60;;;;;;;;;;7295768;19;140478;-80
2023/09/03 20:21:45;;;;;;;6.55;5.18;;;;;;;;;;7296466;19;142543;-80
2023/09/03 20:24:42;;;;;;;12.23;4.75;;;;;;;;;;7294956;19;142004;-80
2023/09/03 20:27:13;;;;;;;5.73;2.97;;;;;;;;;;7297811;19;140808;-79
2023/09/03 20:29:45;;;;;;;5.40;2.63;;;;;;;;;;7299407;19;140532;-77
2023/09/03 20:32:14;;;;;;;;;;;;;;;;;;7299260;19;140661;-75
2023/09/03 20:34:44;;;;;;;4.78;2.47;;;;;;;;;;7298303;19;140659;-76
2023/09/03 20:37:11;;;;;;;5.13;2.33;;;;;;;;;;7298467;19;140553;-76
2023/09/03 20:39:57;;;;;;;4.82;2.65;;;;;;;;;;7306530;19;140618;-77
2023/09/03 20:42:28;;;;;;;5.03;2.22;;;;;;;;;;7303208;19;140368;-77
2023/09/03 20:44:55;;;;;;;4.50;2.63;;;;;;;;;;7297538;19;142065;-78
2023/09/03 20:47:22;;;;;;;5.00;2.63;;;;;;;;;;7298396;19;140796;-77
2023/09/03 20:49:49;;;;;;;3.60;2.67;;;;;;;;;;7297678;19;140681;-80
2023/09/03 20:52:16;;;;;;;4.82;2.85;;;;;;;;;;7297454;19;141073;-77
2023/09/03 20:54:44;;;;;;;4.95;2.67;;;;;;;;;;7297256;19;142848;-81
2023/09/03 20:57:14;;;;;;;4.20;2.63;;;;;;;;;;7299918;19;140414;-78
2023/09/03 20:59:41;;;;;;;5.73;2.53;;;;;;;;;;7297755;19;140664;-79
2023/09/03 21:02:12;;;;;;;4.47;2.65;;;;;;;;;;7298889;19;143175;-78
2023/09/03 21:04:40;;;;;;;4.95;2.58;;;;;;;;;;7297345;19;141323;-78
2023/09/03 21:07:07;;;;;;;3.70;2.40;;;;;;;;;;7300196;19;140566;-76
2023/09/03 21:09:51;;;;;;;3.75;2.72;;;;;;;;;;7299758;19;140992;-81
2023/09/03 21:18:32;;;;;;;3.70;2.78;;;;;;;;;;7300941;19;142363;-84
2023/09/03 21:21:31;;;;;;;4.20;2.10;;;;;;;;;;7307178;19;140707;-79
2023/09/03 21:24:24;;;;;;;3.80;2.20;;;;;;;;;;7304402;19;142804;-79
2023/09/03 21:26:51;;;;;;;4.25;2.30;;;;;;;;;;7303918;19;142516;-78
2023/09/03 21:29:20;;;;;;;3.70;2.63;;;;;;;;;;7303025;19;140676;-79
2023/09/03 21:31:47;;;;;;;3.13;2.05;;;;;;;;;;7303758;19;140894;-79
2023/09/03 21:37:18;;;;;;;2.87;2.17;;;;;;;;;;7307723;19;140796;-80
2023/09/03 21:39:45;;;;;;;3.45;2.58;;;;;;;;;;7303226;19;140430;-79
2023/09/03 21:42:24;;;;;;;3.17;2.50;;;;;;;;;;7305221;19;140510;-80
2023/09/03 21:44:52;;;;;;;2.85;2.38;;;;;;;;;;7300749;19;141167;-81
2023/09/03 21:47:30;;;;;;;4.07;2.47;;;;;;;;;;7304156;19;140972;-80
2023/09/03 21:50:10;;;;;;;3.35;2.33;;;;;;;;;;7303388;19;140720;-80
2023/09/03 21:52:37;;;;;;;3.55;2.30;;;;;;;;;;7305290;19;142120;-79
2023/09/03 21:55:05;;;;;;;2.35;2.13;;;;;;;;;;7303264;19;140529;-80
2023/09/03 21:57:35;;;;;;;3.15;2.30;;;;;;;;;;7305056;19;140954;-80
2023/09/03 22:03:09;;;;;;;2.42;2.22;;;;;;;;;;7304379;19;142275;-79
2023/09/03 22:05:39;;;;;;;3.17;2.40;;;;;;;;;;7303190;19;140791;-79
2023/09/03 22:08:08;;;;;;;4.00;2.30;;;;;;;;;;7303194;19;140921;-79
2023/09/03 22:10:36;;;;;;;3.17;2.50;;;;;;;;;;7304824;19;140665;-80
2023/09/03 22:13:03;;;;;;;2.25;2.00;;;;;;;;;;7302578;19;140628;-80
2023/09/03 22:15:33;;;;;;;2.30;2.10;;;;;;;;;;7301238;19;140959;-79
2023/09/03 22:18:00;;;;;;;;;;;;;;;;;;7303529;19;141717;-79
2023/09/03 22:20:29;;;;;;;3.78;2.13;;;;;;;;;;7304641;19;140695;-79
2023/09/03 22:22:56;;;;;;;2.83;2.08;;;;;;;;;;7303975;19;140462;-79
2023/09/03 22:25:24;;;;;;;2.42;2.20;;;;;;;;;;7303684;19;141132;-79
2023/09/03 22:28:12;;;;;;;2.97;2.10;;;;;;;;;;7301160;19;140657;-79
2023/09/03 22:30:39;;;;;;;3.08;2.10;;;;;;;;;;7302755;19;140706;-78
2023/09/03 22:33:13;;;;;;;2.20;2.00;;;;;;;;;;7302837;19;140766;-76
2023/09/03 22:35:41;;;;;;;2.28;2.08;;;;;;;;;;7303787;19;142026;-79
2023/09/03 22:38:08;;;;;;;2.85;1.98;;;;;;;;;;7302269;19;142701;-77
2023/09/03 22:40:35;;;;;;;2.70;2.10;;;;;;;;;;7303960;19;140564;-80
2023/09/03 22:43:02;;;;;;;2.22;2.03;;;;;;;;;;7298464;19;140786;-79
2023/09/03 22:45:33;;;;;;;2.70;2.20;;;;;;;;;;7303212;19;141033;-79
2023/09/03 22:48:01;;;;;;;2.65;1.90;;;;;;;;;;7301458;19;141483;-77
2023/09/03 22:50:28;;;;;;;2.40;1.83;;;;;;;;;;7306071;19;141162;-79
2023/09/03 22:52:55;;;;;;;2.70;2.05;;;;;;;;;;7302102;19;140415;-79
2023/09/03 22:55:22;;;;;;;2.15;1.95;;;;;;;;;;7302200;19;141022;-80
2023/09/03 22:57:49;;;;;;;2.30;2.10;;;;;;;;;;7301610;19;141627;-79
2023/09/03 23:00:16;;;;;;;2.83;1.88;;;;;;;;;;7303713;19;140383;-80
2023/09/03 23:05:35;;;;;;;2.42;2.15;;;;;;;;;;7306046;19;140340;-79
2023/09/03 23:08:03;;;;;;;1.80;1.70;;;;;;;;;;7303214;19;142576;-79
2023/09/03 23:10:30;;;;;;;2.10;1.70;;;;;;;;;;7300888;19;140476;-78
2023/09/03 23:12:57;;;;;;;2.97;1.90;;;;;;;;;;7302581;19;140444;-79
2023/09/03 23:15:24;;;;;;;2.15;1.88;;;;;;;;;;7302711;19;141516;-79
2023/09/03 23:17:51;;;;;;;2.65;2.03;;;;;;;;;;7302021;19;140986;-79
2023/09/03 23:20:18;;;;;;;2.45;1.75;;;;;;;;;;7305010;19;140536;-80
2023/09/03 23:22:47;;;;;;;3.38;2.00;;;;;;;;;;7302591;19;140442;-80
2023/09/03 23:25:14;;;;;;;1.92;1.73;;;;;;;;;;7301360;19;141230;-78
2023/09/03 23:27:42;;;;;;;2.10;1.70;;;;;;;;;;7300204;19;141891;-80
2023/09/03 23:30:09;;;;;;;2.17;1.98;;;;;;;;;;7302493;19;140528;-78
2023/09/03 23:32:37;;;;;;;2.20;1.80;;;;;;;;;;7300816;19;140497;-79
2023/09/03 23:35:08;;;;;;;2.33;1.90;;;;;;;;;;7301002;19;141333;-79
2023/09/03 23:37:35;;;;;;;2.70;2.25;;;;;;;;;;7301391;19;142355;-78
2023/09/03 23:40:03;;;;;;;2.00;1.80;;;;;;;;;;7301038;19;140381;-79
2023/09/03 23:42:30;;;;;;;1.80;1.70;;;;;;;;;;7302271;19;140453;-79
2023/09/03 23:44:59;;;;;;;2.20;1.98;;;;;;;;;;7301621;19;140535;-78
2023/09/03 23:47:27;;;;;;;1.98;1.77;;;;;;;;;;7304866;19;142439;-78
2023/09/03 23:49:54;;;;;;;1.75;1.65;;;;;;;;;;7301606;19;140856;-78
2023/09/03 23:52:23;;;;;;;1.90;1.70;;;;;;;;;;7302871;19;140836;-79
2023/09/03 23:54:51;;;;;;;2.10;1.70;;;;;;;;;;7303382;19;141176;-79
2023/09/03 23:57:18;;;;;;;1.88;1.77;;;;;;;;;;7302675;19;141928;-79
2023/09/03 23:59:45;;;;;;;1.70;1.60;;;;;;;;;;7302664;19;140670;-78
